Terminal Aerodrome Forecast
Issued by NWS

Home | Current Version | Previous Version | Text Only | Print | Product List | Glossary On
Versions: 1 2 3 4 5 6 7 8 9 10 11 12 13 14 15 16 17 18 19 20 21 22 23 24 25 26 27 28 29 30 31 32 33 34 35 36 37 38
000
FTUS45 KBOI 251736
TAFMYL
TAF
KMYL 251736Z 2518/2618 14010KT 2SM -SN BR OVC025
      TEMPO 2518/2521 1SM -SN BR OVC015
     FM252100 17015KT 1SM -SN BR OVC010
     FM261200 28010KT 3SM -SHSN BR BKN025=

USA.gov is the U.S. government's official web portal to all federal, state and local government web resources and services.